Ithomi — V7UZ9 — position and weather

sailwx.info

Track history (hours):
 
Tides and Currents Weather Stations Pressure Air Temp Water Temp Dewpoint Dewpoint Depression Visibility Wind Speed Wind Dir Waves Ship Positions

Ithomi

Last reported at 2015-May-23 23:22 UTC. Time now 2015-May-25 21:41 UTC.
Position N 01°15' E 104°07'.

Length 189 m; draft 7 m.

Type: Ship (hazmat cat B). MMSI: 538004069.

Date/timePositionNaut miles runAvg speedWind from/ knotsBaromVisibWave heightAir tempDewpointWater temp
2015-May-23 23:22N 01°15' E 104°07'910.5
2015-May-23 22:31N 01°16' E 103°58'1 0.9
2015-May-23 21:24N 01°17' E 103°58'0 0.0
2015-May-23 20:18N 01°17' E 103°58'0 0.1
2015-May-23 18:24N 01°17' E 103°58'0 0.1
2015-May-23 17:06N 01°17' E 103°58'0 0.1
2015-May-23 16:33N 01°17' E 103°58'0 0.0
2015-May-23 15:24N 01°17' E 103°58'0 0.0
2015-May-23 14:30N 01°17' E 103°58'0 0.0
2015-May-23 13:30N 01°17' E 103°58'0 0.0
2015-May-23 12:27N 01°17' E 103°58'0 0.0
2015-May-23 11:24N 01°17' E 103°58'0 0.1
2015-May-23 10:30N 01°17' E 103°58'0 0.0
2015-May-23 08:30N 01°17' E 103°58'1 1.2
2015-May-23 07:32N 01°16' E 103°58'4 4.2
2015-May-23 06:33N 01°13' E 103°55'9 9.0
2015-May-23 05:31N 01°09' E 103°47'66 9.5
2015-May-22 22:33N 01°38' E 102°47'1411.8
2015-May-22 21:20N 01°44' E 102°34'911.8
2015-May-22 20:33N 01°47' E 102°26'1312.1
2015-May-22 19:30N 01°53' E 102°14'1312.7
2015-May-22 18:30N 02°01' E 102°05'1713.3
2015-May-22 17:13N 02°13' E 101°52'  
Track history (hours):
 
Tides and Currents Weather Stations Pressure Air Temp Water Temp Dewpoint Dewpoint Depression Visibility Wind Speed Wind Dir Waves Ship Positions

Ithomi

Last reported at 2015-May-23 23:22 UTC. Time now 2015-May-25 21:41 UTC.
Position N 01°15' E 104°07'.

Length 189 m; draft 7 m.

Type: Ship (hazmat cat B). MMSI: 538004069.

Date/timePositionNaut miles runAvg speedWind from/ knotsBaromVisibWave heightAir tempDewpointWater temp
2015-May-23 23:22N 01°15' E 104°07'910.5
2015-May-23 22:31N 01°16' E 103°58'1 0.9
2015-May-23 21:24N 01°17' E 103°58'0 0.0
2015-May-23 20:18N 01°17' E 103°58'0 0.1
2015-May-23 18:24N 01°17' E 103°58'0 0.1
2015-May-23 17:06N 01°17' E 103°58'0 0.1
2015-May-23 16:33N 01°17' E 103°58'0 0.0
2015-May-23 15:24N 01°17' E 103°58'0 0.0
2015-May-23 14:30N 01°17' E 103°58'0 0.0
2015-May-23 13:30N 01°17' E 103°58'0 0.0
2015-May-23 12:27N 01°17' E 103°58'0 0.0
2015-May-23 11:24N 01°17' E 103°58'0 0.1
2015-May-23 10:30N 01°17' E 103°58'0 0.0
2015-May-23 08:30N 01°17' E 103°58'1 1.2
2015-May-23 07:32N 01°16' E 103°58'4 4.2
2015-May-23 06:33N 01°13' E 103°55'9 9.0
2015-May-23 05:31N 01°09' E 103°47'66 9.5
2015-May-22 22:33N 01°38' E 102°47'1411.8
2015-May-22 21:20N 01°44' E 102°34'911.8
2015-May-22 20:33N 01°47' E 102°26'1312.1
2015-May-22 19:30N 01°53' E 102°14'1312.7
2015-May-22 18:30N 02°01' E 102°05'1713.3
2015-May-22 17:13N 02°13' E 101°52'  

Dump ship's entire track history